»·PEaware :: UAL1622 KPSP-KSFO

UAL1622 :: KPSP-KSFO

FLIGHT INFORMATION

Flight Status: Arrived
Operator:
United Airlines
More flights by this operator :: More flights under this callsign
Pilot: Jac C. (16067)
Aircraft: BOEING 737-800
(B738)
More flights by this aircraft type
Origin: KPSP Palm Springs Intl
United States
Destination: KSFO San Francisco Intl
United States
More flights between these airports :: More routes between these airports
Route: +CATH1 PSP V386 PMD/N0465F360 AVE MAKRS SERFR SERFR3
File this flight plan on PilotEdge
Remarks: PBN / A1B1C1D1S1S2 DOF / 181203 REG / N806SB EET / KZOA0046 OPR / UAL PER / C RMK / TCAS SIMBRIEF
Altitude:
(Current/Filed)
36,000ft
Speed:
(Current/Filed)
384kts
Departed: 02-Dec-18 07:09 PM
Arrived: 02-Dec-18 08:29 PM
Distance/Time
Traveled:
365nm/1:20
Distance/Time
To Go:
Arrived

Flight Plot

Page will automatically refresh every two minutes.

Flight plan parsing failed; only flown route is shown


Map Options




Map Legend


Flown Route
Filed Route
Departure Airport
Arrival Airport
Navaid (VOR, NDB)
Fix

Horizontal Profiles

Position Reports

Time Latitude Longitude Heading Altitude Ground
Speed
02-Dec-18 18:36 33.822532 -116.506215 324 433ft 0kts
02-Dec-18 18:37 33.822532 -116.506215 324 433ft 0kts
02-Dec-18 18:38 33.822532 -116.506215 324 433ft 0kts
02-Dec-18 18:39 33.822532 -116.506215 324 433ft 0kts
02-Dec-18 18:40 33.822532 -116.506215 324 433ft 0kts
02-Dec-18 18:41 33.822532 -116.506215 324 433ft 0kts
02-Dec-18 18:42 33.822532 -116.506215 324 433ft 0kts
02-Dec-18 18:43 33.822532 -116.506215 324 433ft 0kts
02-Dec-18 18:44 33.822532 -116.506215 324 433ft 0kts
02-Dec-18 18:45 33.822532 -116.506215 324 433ft 0kts
02-Dec-18 18:46 33.822532 -116.506215 324 433ft 0kts
02-Dec-18 18:47 33.822532 -116.506215 324 433ft 0kts
02-Dec-18 18:48 33.822532 -116.506215 324 433ft 0kts
02-Dec-18 18:49 33.822532 -116.506215 324 433ft 0kts
02-Dec-18 18:50 33.822532 -116.506215 324 433ft 0kts
02-Dec-18 18:51 33.822532 -116.506215 324 433ft 0kts
02-Dec-18 18:52 33.822532 -116.506215 324 433ft 0kts
02-Dec-18 18:53 33.822532 -116.506215 324 433ft 0kts
02-Dec-18 18:54 33.822532 -116.506215 324 433ft 0kts
02-Dec-18 18:55 33.822532 -116.506215 324 433ft 0kts
02-Dec-18 18:56 33.822532 -116.506215 324 433ft 0kts
02-Dec-18 18:57 33.822532 -116.506215 324 433ft 0kts
02-Dec-18 18:58 33.822532 -116.506215 324 433ft 0kts
02-Dec-18 18:59 33.822532 -116.506215 324 433ft 0kts
02-Dec-18 19:00 33.822532 -116.506215 324 433ft 0kts
02-Dec-18 19:01 33.822531 -116.506214 324 433ft 0kts
02-Dec-18 19:02 33.822531 -116.506214 324 433ft 0kts
02-Dec-18 19:03 33.822377 -116.506085 324 433ft 2kts
02-Dec-18 19:04 33.821932 -116.506072 47 433ft 1kts
02-Dec-18 19:05 33.821876 -116.506165 54 433ft 0kts
02-Dec-18 19:06 33.821876 -116.506165 54 433ft 0kts
02-Dec-18 19:07 33.821876 -116.506165 54 433ft 0kts
02-Dec-18 19:08 33.822015 -116.505931 54 433ft 5kts
02-Dec-18 19:09 33.821032 -116.502015 142 433ft 20kts
02-Dec-18 19:10 33.818443 -116.499471 108 433ft 6kts
02-Dec-18 19:11 33.819054 -116.498178 323 433ft 12kts
02-Dec-18 19:12 33.839684 -116.516258 324 792ft 162kts
02-Dec-18 19:13 33.880750 -116.523325 53 2593ft 189kts
02-Dec-18 19:14 33.875097 -116.454023 105 3890ft 244kts
02-Dec-18 19:15 33.845843 -116.371285 117 5704ft 284kts
02-Dec-18 19:16 33.809192 -116.286647 118 8063ft 297kts
02-Dec-18 19:17 33.755794 -116.217319 184 10178ft 300kts
02-Dec-18 19:18 33.723135 -116.288251 305 11884ft 297kts
02-Dec-18 19:19 33.787732 -116.351206 321 12967ft 301kts
02-Dec-18 19:20 33.846722 -116.421252 300 15064ft 302kts
02-Dec-18 19:21 33.889524 -116.508500 299 17698ft 306kts
02-Dec-18 19:22 33.932766 -116.597115 299 20075ft 311kts
02-Dec-18 19:23 33.976635 -116.687298 298 22266ft 316kts
02-Dec-18 19:24 34.020904 -116.778781 298 24265ft 321kts
02-Dec-18 19:25 34.065991 -116.872170 297 26081ft 326kts
02-Dec-18 19:26 34.111446 -116.966537 297 27728ft 330kts
02-Dec-18 19:27 34.157792 -117.062970 297 29232ft 336kts
02-Dec-18 19:28 34.204118 -117.159501 296 30964ft 331kts
02-Dec-18 19:29 34.249654 -117.254561 296 32599ft 323kts
02-Dec-18 19:30 34.294137 -117.347631 295 34034ft 317kts
02-Dec-18 19:31 34.305872 -117.372230 295 34366ft 316kts
02-Dec-18 19:32 34.345973 -117.456444 295 35400ft 315kts
02-Dec-18 19:33 34.389583 -117.548312 295 36093ft 323kts
02-Dec-18 19:34 34.435899 -117.646333 295 36096ft 349kts
02-Dec-18 19:35 34.483120 -117.746882 294 36132ft 362kts
02-Dec-18 19:36 34.516853 -117.818817 294 36132ft 361kts
02-Dec-18 19:37 34.566296 -117.924433 295 36137ft 362kts
02-Dec-18 19:38 34.615760 -118.030303 294 36134ft 361kts
02-Dec-18 19:39 34.668836 -118.134168 297 36134ft 364kts
02-Dec-18 19:40 34.722849 -118.237076 297 36132ft 363kts
02-Dec-18 19:41 34.777128 -118.340585 297 36130ft 363kts
02-Dec-18 19:42 34.831422 -118.443969 297 36136ft 363kts
02-Dec-18 19:43 34.885784 -118.547329 297 36148ft 363kts
02-Dec-18 19:44 34.939763 -118.649799 298 36149ft 365kts
02-Dec-18 19:45 34.994276 -118.753235 298 36167ft 366kts
02-Dec-18 19:46 35.049563 -118.857872 298 36174ft 369kts
02-Dec-18 19:47 35.105048 -118.962675 298 36192ft 372kts
02-Dec-18 19:48 35.160681 -119.067638 298 36204ft 374kts
02-Dec-18 19:49 35.217136 -119.173971 298 36196ft 374kts
02-Dec-18 19:50 35.273741 -119.280433 298 36197ft 374kts
02-Dec-18 19:51 35.330444 -119.386880 298 36199ft 374kts
02-Dec-18 19:52 35.387013 -119.492938 298 36194ft 373kts
02-Dec-18 19:53 35.444038 -119.599643 298 36202ft 373kts
02-Dec-18 19:54 35.500532 -119.705366 298 36227ft 374kts
02-Dec-18 19:55 35.557430 -119.811591 298 36219ft 374kts
02-Dec-18 19:56 35.614363 -119.917686 298 36206ft 373kts
02-Dec-18 19:57 35.651622 -120.033326 277 36200ft 367kts
02-Dec-18 19:58 35.664385 -120.157749 277 36188ft 367kts
02-Dec-18 19:59 35.676748 -120.282138 277 36188ft 367kts
02-Dec-18 20:00 35.705244 -120.402070 291 36183ft 369kts
02-Dec-18 20:01 35.747868 -120.516691 291 36187ft 369kts
02-Dec-18 20:02 35.791027 -120.631694 291 36182ft 370kts
02-Dec-18 20:03 35.833909 -120.745877 291 36197ft 370kts
02-Dec-18 20:04 35.877076 -120.860377 291 36194ft 370kts
02-Dec-18 20:05 35.920546 -120.975367 291 36186ft 369kts
02-Dec-18 20:06 35.964202 -121.090556 291 36187ft 374kts
02-Dec-18 20:07 36.007898 -121.205535 291 36185ft 367kts
02-Dec-18 20:08 36.051346 -121.319321 294 36186ft 366kts
02-Dec-18 20:09 36.123669 -121.407651 319 34415ft 395kts
02-Dec-18 20:10 36.214941 -121.479058 320 31545ft 390kts
02-Dec-18 20:11 36.306802 -121.550953 322 28889ft 402kts
02-Dec-18 20:12 36.399773 -121.623751 322 26457ft 386kts
02-Dec-18 20:13 36.486924 -121.692348 322 24218ft 360kts
02-Dec-18 20:14 36.568278 -121.756662 323 22232ft 337kts
02-Dec-18 20:15 36.645296 -121.817697 323 20237ft 322kts
02-Dec-18 20:16 36.719094 -121.876300 324 18361ft 308kts
02-Dec-18 20:17 36.799671 -121.911204 343 16323ft 313kts
02-Dec-18 20:18 36.883451 -121.933978 343 14515ft 306kts
02-Dec-18 20:19 36.965389 -121.957662 339 12746ft 300kts
02-Dec-18 20:20 37.044384 -121.988937 340 10991ft 297kts
02-Dec-18 20:21 37.118322 -122.017850 340 10275ft 264kts
02-Dec-18 20:22 37.185777 -122.044270 340 9424ft 251kts
02-Dec-18 20:23 37.251148 -122.069932 340 8417ft 260kts
02-Dec-18 20:24 37.321457 -122.097623 341 6913ft 265kts
02-Dec-18 20:25 37.388179 -122.123583 343 5797ft 233kts
02-Dec-18 20:26 37.450732 -122.144925 344 3610ft 218kts
02-Dec-18 20:27 37.502886 -122.162808 345 3117ft 179kts
02-Dec-18 20:28 37.543461 -122.197110 300 2857ft 187kts
02-Dec-18 20:29 37.566984 -122.252125 299 1902ft 162kts
02-Dec-18 20:30 37.586128 -122.297528 299 1128ft 144kts
02-Dec-18 20:31 37.604628 -122.341283 298 345ft 138kts
02-Dec-18 20:32 37.619636 -122.377348 295 17ft 37kts
02-Dec-18 20:33 37.619558 -122.379452 230 16ft 0kts
02-Dec-18 20:34 37.619694 -122.382106 297 17ft 12kts
02-Dec-18 20:35 37.620319 -122.385449 205 17ft 10kts
02-Dec-18 20:36 37.618793 -122.385187 153 17ft 0kts

Navigation Log

Ident Type
Flight plan parsing failed, navigation log unavailable